sensor_id;sensor_type;location;lat;lon;timestamp;P1;durP1;ratioP1;P2;durP2;ratioP2
72941;SDS011;69665;55.822;37.330;2024-01-15T00:02:05;10.82;;;5.95;;
72941;SDS011;69665;55.822;37.330;2024-01-15T00:04:36;11.00;;;5.57;;
72941;SDS011;69665;55.822;37.330;2024-01-15T00:07:04;13.73;;;5.55;;
72941;SDS011;69665;55.822;37.330;2024-01-15T00:09:31;10.23;;;5.57;;
72941;SDS011;69665;55.822;37.330;2024-01-15T00:11:56;12.45;;;4.60;;
72941;SDS011;69665;55.822;37.330;2024-01-15T00:14:22;11.90;;;6.18;;
72941;SDS011;69665;55.822;37.330;2024-01-15T00:16:49;15.50;;;5.32;;
72941;SDS011;69665;55.822;37.330;2024-01-15T00:19:20;14.60;;;5.55;;
72941;SDS011;69665;55.822;37.330;2024-01-15T00:21:49;15.98;;;5.80;;
72941;SDS011;69665;55.822;37.330;2024-01-15T00:24:15;11.43;;;5.63;;
72941;SDS011;69665;55.822;37.330;2024-01-15T00:26:44;10.35;;;5.10;;
72941;SDS011;69665;55.822;37.330;2024-01-15T00:29:10;11.43;;;5.95;;
72941;SDS011;69665;55.822;37.330;2024-01-15T00:31:35;14.43;;;5.78;;
72941;SDS011;69665;55.822;37.330;2024-01-15T00:34:01;17.45;;;6.07;;
72941;SDS011;69665;55.822;37.330;2024-01-15T00:36:28;15.10;;;5.32;;
72941;SDS011;69665;55.822;37.330;2024-01-15T00:38:54;10.32;;;4.90;;
72941;SDS011;69665;55.822;37.330;2024-01-15T00:41:20;12.90;;;6.00;;
72941;SDS011;69665;55.822;37.330;2024-01-15T00:43:46;14.20;;;5.78;;
72941;SDS011;69665;55.822;37.330;2024-01-15T00:46:14;13.15;;;5.57;;
72941;SDS011;69665;55.822;37.330;2024-01-15T00:48:40;13.10;;;4.85;;
72941;SDS011;69665;55.822;37.330;2024-01-15T00:51:06;12.50;;;6.18;;
72941;SDS011;69665;55.822;37.330;2024-01-15T00:53:31;15.55;;;4.75;;
72941;SDS011;69665;55.822;37.330;2024-01-15T00:55:57;12.18;;;5.55;;
72941;SDS011;69665;55.822;37.330;2024-01-15T00:58:23;19.27;;;6.50;;
72941;SDS011;69665;55.822;37.330;2024-01-15T01:00:48;12.55;;;5.45;;
72941;SDS011;69665;55.822;37.330;2024-01-15T01:03:14;14.20;;;5.70;;
72941;SDS011;69665;55.822;37.330;2024-01-15T01:05:40;15.05;;;6.00;;
72941;SDS011;69665;55.822;37.330;2024-01-15T01:08:05;13.00;;;5.28;;
72941;SDS011;69665;55.822;37.330;2024-01-15T01:10:31;15.52;;;6.45;;
72941;SDS011;69665;55.822;37.330;2024-01-15T01:12:56;12.27;;;6.68;;
72941;SDS011;69665;55.822;37.330;2024-01-15T01:15:22;16.02;;;6.35;;
72941;SDS011;69665;55.822;37.330;2024-01-15T01:17:47;17.40;;;6.30;;
72941;SDS011;69665;55.822;37.330;2024-01-15T01:20:13;14.07;;;6.70;;
72941;SDS011;69665;55.822;37.330;2024-01-15T01:22:40;15.65;;;6.10;;
72941;SDS011;69665;55.822;37.330;2024-01-15T01:25:06;14.68;;;6.55;;
72941;SDS011;69665;55.822;37.330;2024-01-15T01:27:32;11.93;;;5.85;;
72941;SDS011;69665;55.822;37.330;2024-01-15T01:29:58;14.27;;;6.43;;
72941;SDS011;69665;55.822;37.330;2024-01-15T01:32:24;13.48;;;6.35;;
72941;SDS011;69665;55.822;37.330;2024-01-15T01:34:50;14.57;;;6.40;;
72941;SDS011;69665;55.822;37.330;2024-01-15T01:37:16;13.43;;;5.97;;
72941;SDS011;69665;55.822;37.330;2024-01-15T01:39:42;13.80;;;6.22;;
72941;SDS011;69665;55.822;37.330;2024-01-15T01:42:08;13.27;;;5.65;;
72941;SDS011;69665;55.822;37.330;2024-01-15T01:44:34;14.13;;;6.13;;
72941;SDS011;69665;55.822;37.330;2024-01-15T01:47:00;18.63;;;6.20;;
72941;SDS011;69665;55.822;37.330;2024-01-15T01:49:26;13.60;;;6.10;;
72941;SDS011;69665;55.822;37.330;2024-01-15T01:51:52;14.10;;;5.82;;
72941;SDS011;69665;55.822;37.330;2024-01-15T01:54:19;17.00;;;6.85;;
72941;SDS011;69665;55.822;37.330;2024-01-15T01:56:46;12.15;;;5.53;;
72941;SDS011;69665;55.822;37.330;2024-01-15T01:59:14;15.10;;;6.82;;
72941;SDS011;69665;55.822;37.330;2024-01-15T02:01:40;13.88;;;6.18;;
72941;SDS011;69665;55.822;37.330;2024-01-15T02:04:07;17.48;;;7.38;;
72941;SDS011;69665;55.822;37.330;2024-01-15T02:06:33;14.75;;;6.45;;
72941;SDS011;69665;55.822;37.330;2024-01-15T02:08:59;14.02;;;6.18;;
72941;SDS011;69665;55.822;37.330;2024-01-15T02:11:26;18.85;;;5.80;;
72941;SDS011;69665;55.822;37.330;2024-01-15T02:13:52;14.15;;;7.18;;
72941;SDS011;69665;55.822;37.330;2024-01-15T02:16:17;15.45;;;6.57;;
72941;SDS011;69665;55.822;37.330;2024-01-15T02:18:44;17.83;;;7.85;;
72941;SDS011;69665;55.822;37.330;2024-01-15T02:21:33;12.20;;;5.97;;
72941;SDS011;69665;55.822;37.330;2024-01-15T02:26:26;13.00;;;5.10;;
72941;SDS011;69665;55.822;37.330;2024-01-15T02:28:52;13.38;;;6.65;;
72941;SDS011;69665;55.822;37.330;2024-01-15T02:31:17;13.65;;;5.63;;
72941;SDS011;69665;55.822;37.330;2024-01-15T02:33:43;19.23;;;7.10;;
72941;SDS011;69665;55.822;37.330;2024-01-15T02:36:11;14.30;;;6.32;;
72941;SDS011;69665;55.822;37.330;2024-01-15T02:38:37;17.42;;;6.35;;
72941;SDS011;69665;55.822;37.330;2024-01-15T02:41:03;16.65;;;6.78;;
72941;SDS011;69665;55.822;37.330;2024-01-15T02:43:29;16.10;;;6.38;;
72941;SDS011;69665;55.822;37.330;2024-01-15T02:45:55;13.82;;;6.43;;
72941;SDS011;69665;55.822;37.330;2024-01-15T02:48:20;15.10;;;6.18;;
72941;SDS011;69665;55.822;37.330;2024-01-15T02:50:46;15.68;;;7.22;;
72941;SDS011;69665;55.822;37.330;2024-01-15T02:53:11;15.40;;;5.43;;
72941;SDS011;69665;55.822;37.330;2024-01-15T02:55:37;15.13;;;5.07;;
72941;SDS011;69665;55.822;37.330;2024-01-15T02:58:03;14.93;;;7.28;;
72941;SDS011;69665;55.822;37.330;2024-01-15T03:00:29;16.15;;;7.50;;
72941;SDS011;69665;55.822;37.330;2024-01-15T03:02:55;18.15;;;6.35;;
72941;SDS011;69665;55.822;37.330;2024-01-15T03:05:20;18.15;;;7.60;;
72941;SDS011;69665;55.822;37.330;2024-01-15T03:07:46;20.63;;;7.72;;
72941;SDS011;69665;55.822;37.330;2024-01-15T03:10:11;16.27;;;6.95;;
72941;SDS011;69665;55.822;37.330;2024-01-15T03:12:37;16.33;;;5.97;;
72941;SDS011;69665;55.822;37.330;2024-01-15T03:15:03;23.00;;;8.90;;
72941;SDS011;69665;55.822;37.330;2024-01-15T03:17:30;14.27;;;7.35;;
72941;SDS011;69665;55.822;37.330;2024-01-15T03:19:55;18.42;;;7.25;;
72941;SDS011;69665;55.822;37.330;2024-01-15T03:22:21;14.73;;;6.03;;
72941;SDS011;69665;55.822;37.330;2024-01-15T03:24:47;15.82;;;7.00;;
72941;SDS011;69665;55.822;37.330;2024-01-15T03:27:12;15.77;;;7.38;;
72941;SDS011;69665;55.822;37.330;2024-01-15T03:29:39;11.40;;;6.18;;
72941;SDS011;69665;55.822;37.330;2024-01-15T03:32:05;13.35;;;6.53;;
72941;SDS011;69665;55.822;37.330;2024-01-15T03:34:30;16.80;;;6.85;;
72941;SDS011;69665;55.822;37.330;2024-01-15T03:36:56;17.88;;;7.53;;
72941;SDS011;69665;55.822;37.330;2024-01-15T03:39:21;17.23;;;8.45;;
72941;SDS011;69665;55.822;37.330;2024-01-15T03:41:47;17.23;;;6.90;;
72941;SDS011;69665;55.822;37.330;2024-01-15T03:44:13;13.80;;;6.68;;
72941;SDS011;69665;55.822;37.330;2024-01-15T03:46:38;15.60;;;7.85;;
72941;SDS011;69665;55.822;37.330;2024-01-15T03:49:04;13.93;;;6.80;;
72941;SDS011;69665;55.822;37.330;2024-01-15T03:51:29;15.85;;;7.65;;
72941;SDS011;69665;55.822;37.330;2024-01-15T03:53:55;19.05;;;7.80;;
72941;SDS011;69665;55.822;37.330;2024-01-15T03:56:20;17.20;;;7.13;;
72941;SDS011;69665;55.822;37.330;2024-01-15T03:58:46;19.50;;;9.07;;
72941;SDS011;69665;55.822;37.330;2024-01-15T04:01:12;18.63;;;8.15;;
72941;SDS011;69665;55.822;37.330;2024-01-15T04:03:37;17.48;;;6.45;;
72941;SDS011;69665;55.822;37.330;2024-01-15T04:06:03;20.02;;;8.82;;
72941;SDS011;69665;55.822;37.330;2024-01-15T04:08:30;18.00;;;7.75;;
72941;SDS011;69665;55.822;37.330;2024-01-15T04:10:55;21.90;;;9.30;;
72941;SDS011;69665;55.822;37.330;2024-01-15T04:13:21;19.75;;;8.07;;
72941;SDS011;69665;55.822;37.330;2024-01-15T04:15:47;20.77;;;7.70;;
72941;SDS011;69665;55.822;37.330;2024-01-15T04:18:12;20.02;;;8.07;;
72941;SDS011;69665;55.822;37.330;2024-01-15T04:20:38;19.67;;;9.15;;
72941;SDS011;69665;55.822;37.330;2024-01-15T04:23:04;17.70;;;7.55;;
72941;SDS011;69665;55.822;37.330;2024-01-15T04:25:30;20.55;;;9.43;;
72941;SDS011;69665;55.822;37.330;2024-01-15T04:27:56;17.88;;;7.75;;
72941;SDS011;69665;55.822;37.330;2024-01-15T04:30:22;18.38;;;7.85;;
72941;SDS011;69665;55.822;37.330;2024-01-15T04:32:47;20.95;;;8.25;;
72941;SDS011;69665;55.822;37.330;2024-01-15T04:35:13;20.90;;;7.97;;
72941;SDS011;69665;55.822;37.330;2024-01-15T04:37:39;18.67;;;8.50;;
72941;SDS011;69665;55.822;37.330;2024-01-15T04:40:06;19.50;;;7.63;;
72941;SDS011;69665;55.822;37.330;2024-01-15T04:42:33;22.27;;;9.23;;
72941;SDS011;69665;55.822;37.330;2024-01-15T04:44:58;19.23;;;7.93;;
72941;SDS011;69665;55.822;37.330;2024-01-15T04:47:24;18.77;;;8.18;;
72941;SDS011;69665;55.822;37.330;2024-01-15T04:49:50;19.42;;;7.85;;
72941;SDS011;69665;55.822;37.330;2024-01-15T04:52:17;17.67;;;9.02;;
72941;SDS011;69665;55.822;37.330;2024-01-15T04:54:43;17.58;;;7.97;;
72941;SDS011;69665;55.822;37.330;2024-01-15T04:57:08;23.25;;;9.10;;
72941;SDS011;69665;55.822;37.330;2024-01-15T04:59:34;23.23;;;9.52;;
72941;SDS011;69665;55.822;37.330;2024-01-15T05:01:59;20.35;;;9.38;;
72941;SDS011;69665;55.822;37.330;2024-01-15T05:04:25;22.38;;;8.85;;
72941;SDS011;69665;55.822;37.330;2024-01-15T05:06:51;21.38;;;9.20;;
72941;SDS011;69665;55.822;37.330;2024-01-15T05:09:16;18.25;;;8.13;;
72941;SDS011;69665;55.822;37.330;2024-01-15T05:11:43;20.00;;;9.13;;
72941;SDS011;69665;55.822;37.330;2024-01-15T05:14:09;21.95;;;9.80;;
72941;SDS011;69665;55.822;37.330;2024-01-15T05:16:34;22.73;;;9.35;;
72941;SDS011;69665;55.822;37.330;2024-01-15T05:19:03;21.33;;;8.82;;
72941;SDS011;69665;55.822;37.330;2024-01-15T05:21:28;20.48;;;9.20;;
72941;SDS011;69665;55.822;37.330;2024-01-15T05:23:54;21.05;;;8.40;;
72941;SDS011;69665;55.822;37.330;2024-01-15T05:26:19;22.08;;;8.68;;
72941;SDS011;69665;55.822;37.330;2024-01-15T05:28:45;20.38;;;8.93;;
72941;SDS011;69665;55.822;37.330;2024-01-15T05:31:11;21.63;;;9.68;;
72941;SDS011;69665;55.822;37.330;2024-01-15T05:33:36;24.58;;;10.57;;
72941;SDS011;69665;55.822;37.330;2024-01-15T05:36:02;21.80;;;9.05;;
72941;SDS011;69665;55.822;37.330;2024-01-15T05:38:28;18.85;;;8.13;;
72941;SDS011;69665;55.822;37.330;2024-01-15T05:40:54;16.80;;;7.40;;
72941;SDS011;69665;55.822;37.330;2024-01-15T05:43:19;18.55;;;8.52;;
72941;SDS011;69665;55.822;37.330;2024-01-15T05:45:45;20.92;;;8.55;;
72941;SDS011;69665;55.822;37.330;2024-01-15T05:48:11;23.17;;;9.35;;
72941;SDS011;69665;55.822;37.330;2024-01-15T05:50:37;22.67;;;8.75;;
72941;SDS011;69665;55.822;37.330;2024-01-15T05:53:04;24.40;;;10.40;;
72941;SDS011;69665;55.822;37.330;2024-01-15T05:55:29;20.98;;;9.07;;
72941;SDS011;69665;55.822;37.330;2024-01-15T05:57:55;21.42;;;8.45;;
72941;SDS011;69665;55.822;37.330;2024-01-15T06:00:21;21.00;;;8.98;;
72941;SDS011;69665;55.822;37.330;2024-01-15T06:02:47;17.83;;;9.18;;
72941;SDS011;69665;55.822;37.330;2024-01-15T06:05:14;17.75;;;8.75;;
72941;SDS011;69665;55.822;37.330;2024-01-15T06:07:39;22.88;;;9.90;;
72941;SDS011;69665;55.822;37.330;2024-01-15T06:10:05;19.80;;;8.43;;
72941;SDS011;69665;55.822;37.330;2024-01-15T06:12:31;19.35;;;9.25;;
72941;SDS011;69665;55.822;37.330;2024-01-15T06:14:58;25.10;;;10.43;;
72941;SDS011;69665;55.822;37.330;2024-01-15T06:17:24;21.85;;;8.40;;
72941;SDS011;69665;55.822;37.330;2024-01-15T06:19:50;24.23;;;8.77;;
72941;SDS011;69665;55.822;37.330;2024-01-15T06:22:15;19.55;;;9.40;;
72941;SDS011;69665;55.822;37.330;2024-01-15T06:24:41;24.35;;;10.05;;
72941;SDS011;69665;55.822;37.330;2024-01-15T06:27:06;19.08;;;8.70;;
72941;SDS011;69665;55.822;37.330;2024-01-15T06:29:32;25.40;;;9.13;;
72941;SDS011;69665;55.822;37.330;2024-01-15T06:31:58;19.08;;;8.40;;
72941;SDS011;69665;55.822;37.330;2024-01-15T06:34:23;18.92;;;8.40;;
72941;SDS011;69665;55.822;37.330;2024-01-15T06:36:49;24.95;;;8.73;;
72941;SDS011;69665;55.822;37.330;2024-01-15T06:39:14;25.25;;;9.68;;
72941;SDS011;69665;55.822;37.330;2024-01-15T06:41:40;21.23;;;8.82;;
72941;SDS011;69665;55.822;37.330;2024-01-15T06:44:09;21.15;;;8.45;;
72941;SDS011;69665;55.822;37.330;2024-01-15T06:46:36;18.75;;;8.40;;
72941;SDS011;69665;55.822;37.330;2024-01-15T06:49:02;22.60;;;9.30;;
72941;SDS011;69665;55.822;37.330;2024-01-15T06:51:29;26.33;;;8.98;;
72941;SDS011;69665;55.822;37.330;2024-01-15T06:53:54;14.82;;;6.93;;
72941;SDS011;69665;55.822;37.330;2024-01-15T06:56:20;18.92;;;8.63;;
72941;SDS011;69665;55.822;37.330;2024-01-15T06:58:46;20.90;;;8.25;;
72941;SDS011;69665;55.822;37.330;2024-01-15T07:01:11;18.25;;;8.63;;
72941;SDS011;69665;55.822;37.330;2024-01-15T07:03:37;21.45;;;8.60;;
72941;SDS011;69665;55.822;37.330;2024-01-15T07:06:03;19.90;;;8.65;;
72941;SDS011;69665;55.822;37.330;2024-01-15T07:08:29;22.83;;;9.05;;
72941;SDS011;69665;55.822;37.330;2024-01-15T07:10:55;19.90;;;8.70;;
72941;SDS011;69665;55.822;37.330;2024-01-15T07:13:21;15.77;;;8.32;;
72941;SDS011;69665;55.822;37.330;2024-01-15T07:15:46;19.10;;;8.40;;
72941;SDS011;69665;55.822;37.330;2024-01-15T07:18:12;21.27;;;7.68;;
72941;SDS011;69665;55.822;37.330;2024-01-15T07:20:38;19.30;;;8.70;;
72941;SDS011;69665;55.822;37.330;2024-01-15T07:23:03;17.05;;;8.43;;
72941;SDS011;69665;55.822;37.330;2024-01-15T07:25:30;20.80;;;9.35;;
72941;SDS011;69665;55.822;37.330;2024-01-15T07:27:56;21.10;;;9.07;;
72941;SDS011;69665;55.822;37.330;2024-01-15T07:30:21;21.02;;;8.68;;
72941;SDS011;69665;55.822;37.330;2024-01-15T07:32:47;18.85;;;8.48;;
72941;SDS011;69665;55.822;37.330;2024-01-15T07:35:14;18.17;;;8.10;;
72941;SDS011;69665;55.822;37.330;2024-01-15T07:37:40;18.33;;;8.32;;
72941;SDS011;69665;55.822;37.330;2024-01-15T07:40:08;19.15;;;8.90;;
72941;SDS011;69665;55.822;37.330;2024-01-15T07:42:34;22.55;;;8.70;;
72941;SDS011;69665;55.822;37.330;2024-01-15T07:45:00;21.23;;;8.93;;
72941;SDS011;69665;55.822;37.330;2024-01-15T07:47:26;21.13;;;9.90;;
72941;SDS011;69665;55.822;37.330;2024-01-15T07:49:53;23.35;;;9.23;;
72941;SDS011;69665;55.822;37.330;2024-01-15T07:52:19;23.73;;;9.38;;
72941;SDS011;69665;55.822;37.330;2024-01-15T07:54:45;18.65;;;8.32;;
72941;SDS011;69665;55.822;37.330;2024-01-15T07:57:10;18.65;;;8.68;;
72941;SDS011;69665;55.822;37.330;2024-01-15T07:59:36;25.77;;;7.72;;
72941;SDS011;69665;55.822;37.330;2024-01-15T08:02:02;21.52;;;9.25;;
72941;SDS011;69665;55.822;37.330;2024-01-15T08:04:28;21.77;;;10.30;;
72941;SDS011;69665;55.822;37.330;2024-01-15T08:06:54;20.23;;;8.80;;
72941;SDS011;69665;55.822;37.330;2024-01-15T08:09:20;15.90;;;7.82;;
72941;SDS011;69665;55.822;37.330;2024-01-15T08:11:45;16.55;;;7.63;;
72941;SDS011;69665;55.822;37.330;2024-01-15T08:14:11;17.02;;;8.57;;
72941;SDS011;69665;55.822;37.330;2024-01-15T08:16:37;18.08;;;7.50;;
72941;SDS011;69665;55.822;37.330;2024-01-15T08:19:03;18.30;;;8.57;;
72941;SDS011;69665;55.822;37.330;2024-01-15T08:21:29;20.52;;;7.97;;
72941;SDS011;69665;55.822;37.330;2024-01-15T08:23:59;15.77;;;7.30;;
72941;SDS011;69665;55.822;37.330;2024-01-15T08:26:25;18.67;;;8.38;;
72941;SDS011;69665;55.822;37.330;2024-01-15T08:28:51;18.45;;;8.20;;
72941;SDS011;69665;55.822;37.330;2024-01-15T08:31:17;16.40;;;7.57;;
72941;SDS011;69665;55.822;37.330;2024-01-15T08:33:43;18.17;;;7.75;;
72941;SDS011;69665;55.822;37.330;2024-01-15T08:36:11;25.38;;;9.40;;
72941;SDS011;69665;55.822;37.330;2024-01-15T08:38:37;18.70;;;7.18;;
72941;SDS011;69665;55.822;37.330;2024-01-15T08:41:03;17.40;;;7.60;;
72941;SDS011;69665;55.822;37.330;2024-01-15T08:43:30;21.05;;;9.18;;
72941;SDS011;69665;55.822;37.330;2024-01-15T08:45:59;19.80;;;8.23;;
72941;SDS011;69665;55.822;37.330;2024-01-15T08:48:25;17.52;;;8.88;;
72941;SDS011;69665;55.822;37.330;2024-01-15T08:50:54;17.65;;;7.07;;
72941;SDS011;69665;55.822;37.330;2024-01-15T08:53:20;14.70;;;6.70;;
72941;SDS011;69665;55.822;37.330;2024-01-15T08:55:47;20.08;;;8.63;;
72941;SDS011;69665;55.822;37.330;2024-01-15T08:58:13;17.00;;;7.50;;
72941;SDS011;69665;55.822;37.330;2024-01-15T09:00:39;18.33;;;8.45;;
72941;SDS011;69665;55.822;37.330;2024-01-15T09:03:05;15.15;;;7.53;;
72941;SDS011;69665;55.822;37.330;2024-01-15T09:05:32;14.80;;;6.85;;
72941;SDS011;69665;55.822;37.330;2024-01-15T09:07:58;18.48;;;7.90;;
72941;SDS011;69665;55.822;37.330;2024-01-15T09:10:24;21.65;;;8.20;;
72941;SDS011;69665;55.822;37.330;2024-01-15T09:12:49;15.60;;;7.18;;
72941;SDS011;69665;55.822;37.330;2024-01-15T09:15:15;17.90;;;7.18;;
72941;SDS011;69665;55.822;37.330;2024-01-15T09:17:41;17.50;;;7.72;;
72941;SDS011;69665;55.822;37.330;2024-01-15T09:20:07;15.93;;;6.97;;
72941;SDS011;69665;55.822;37.330;2024-01-15T09:22:34;16.33;;;7.35;;
72941;SDS011;69665;55.822;37.330;2024-01-15T09:25:00;16.92;;;7.00;;
72941;SDS011;69665;55.822;37.330;2024-01-15T09:27:26;16.55;;;7.13;;
72941;SDS011;69665;55.822;37.330;2024-01-15T09:29:52;18.23;;;8.05;;
72941;SDS011;69665;55.822;37.330;2024-01-15T09:32:18;15.35;;;7.90;;
72941;SDS011;69665;55.822;37.330;2024-01-15T09:34:43;19.23;;;8.45;;
72941;SDS011;69665;55.822;37.330;2024-01-15T09:37:10;16.50;;;7.25;;
72941;SDS011;69665;55.822;37.330;2024-01-15T09:39:35;17.08;;;7.57;;
72941;SDS011;69665;55.822;37.330;2024-01-15T09:42:01;19.55;;;8.13;;
72941;SDS011;69665;55.822;37.330;2024-01-15T09:44:27;18.88;;;7.90;;
72941;SDS011;69665;55.822;37.330;2024-01-15T09:46:55;18.85;;;8.27;;
72941;SDS011;69665;55.822;37.330;2024-01-15T09:49:21;18.63;;;7.93;;
72941;SDS011;69665;55.822;37.330;2024-01-15T09:51:47;19.92;;;7.85;;
72941;SDS011;69665;55.822;37.330;2024-01-15T09:54:12;16.45;;;8.60;;
72941;SDS011;69665;55.822;37.330;2024-01-15T09:56:38;18.77;;;8.07;;
72941;SDS011;69665;55.822;37.330;2024-01-15T09:59:04;16.38;;;7.70;;
72941;SDS011;69665;55.822;37.330;2024-01-15T10:01:31;17.90;;;7.82;;
72941;SDS011;69665;55.822;37.330;2024-01-15T10:03:57;17.75;;;7.22;;
72941;SDS011;69665;55.822;37.330;2024-01-15T10:06:24;15.32;;;7.90;;
72941;SDS011;69665;55.822;37.330;2024-01-15T10:08:53;16.88;;;7.95;;
72941;SDS011;69665;55.822;37.330;2024-01-15T10:11:19;22.00;;;7.38;;
72941;SDS011;69665;55.822;37.330;2024-01-15T10:13:45;14.75;;;6.95;;
72941;SDS011;69665;55.822;37.330;2024-01-15T10:16:11;16.15;;;7.80;;
72941;SDS011;69665;55.822;37.330;2024-01-15T10:18:37;15.00;;;7.50;;
72941;SDS011;69665;55.822;37.330;2024-01-15T10:21:07;17.48;;;7.13;;
72941;SDS011;69665;55.822;37.330;2024-01-15T10:23:33;14.52;;;6.82;;
72941;SDS011;69665;55.822;37.330;2024-01-15T10:25:59;16.60;;;7.43;;
72941;SDS011;69665;55.822;37.330;2024-01-15T10:28:26;16.58;;;7.00;;
72941;SDS011;69665;55.822;37.330;2024-01-15T10:30:54;16.48;;;7.13;;
72941;SDS011;69665;55.822;37.330;2024-01-15T10:33:23;18.05;;;7.53;;
72941;SDS011;69665;55.822;37.330;2024-01-15T10:35:53;17.05;;;6.95;;
72941;SDS011;69665;55.822;37.330;2024-01-15T10:38:20;16.02;;;7.22;;
72941;SDS011;69665;55.822;37.330;2024-01-15T10:40:53;16.10;;;6.45;;
72941;SDS011;69665;55.822;37.330;2024-01-15T10:43:19;14.93;;;7.20;;
72941;SDS011;69665;55.822;37.330;2024-01-15T10:45:46;14.93;;;7.50;;
72941;SDS011;69665;55.822;37.330;2024-01-15T10:48:13;15.85;;;6.90;;
72941;SDS011;69665;55.822;37.330;2024-01-15T10:50:39;17.73;;;6.60;;
72941;SDS011;69665;55.822;37.330;2024-01-15T10:53:05;17.05;;;7.43;;
72941;SDS011;69665;55.822;37.330;2024-01-15T10:55:31;19.08;;;7.90;;
72941;SDS011;69665;55.822;37.330;2024-01-15T10:57:59;17.58;;;7.95;;
72941;SDS011;69665;55.822;37.330;2024-01-15T11:00:25;19.48;;;6.95;;
72941;SDS011;69665;55.822;37.330;2024-01-15T11:02:51;19.05;;;7.95;;
72941;SDS011;69665;55.822;37.330;2024-01-15T11:05:21;20.80;;;7.25;;
72941;SDS011;69665;55.822;37.330;2024-01-15T11:07:50;16.80;;;8.13;;
72941;SDS011;69665;55.822;37.330;2024-01-15T11:15:59;20.02;;;7.10;;
72941;SDS011;69665;55.822;37.330;2024-01-15T11:18:28;18.48;;;7.50;;
72941;SDS011;69665;55.822;37.330;2024-01-15T11:23:42;14.88;;;6.65;;
72941;SDS011;69665;55.822;37.330;2024-01-15T11:28:54;17.73;;;6.93;;
72941;SDS011;69665;55.822;37.330;2024-01-15T11:34:06;15.32;;;7.18;;
72941;SDS011;69665;55.822;37.330;2024-01-15T11:41:55;16.38;;;7.35;;
72941;SDS011;69665;55.822;37.330;2024-01-15T11:44:22;23.45;;;12.35;;
72941;SDS011;69665;55.822;37.330;2024-01-15T11:46:56;20.63;;;8.75;;
72941;SDS011;69665;55.822;37.330;2024-01-15T11:52:23;19.40;;;7.97;;
72941;SDS011;69665;55.822;37.330;2024-01-15T11:54:54;18.95;;;7.47;;
72941;SDS011;69665;55.822;37.330;2024-01-15T11:57:33;18.27;;;9.10;;
72941;SDS011;69665;55.822;37.330;2024-01-15T12:00:05;15.85;;;7.47;;
72941;SDS011;69665;55.822;37.330;2024-01-15T12:02:42;13.80;;;7.03;;
72941;SDS011;69665;55.822;37.330;2024-01-15T12:05:12;15.18;;;7.82;;
72941;SDS011;69665;55.822;37.330;2024-01-15T12:07:41;17.52;;;7.55;;
72941;SDS011;69665;55.822;37.330;2024-01-15T12:10:15;17.25;;;7.32;;
72941;SDS011;69665;55.822;37.330;2024-01-15T12:15:16;19.02;;;8.00;;
72941;SDS011;69665;55.822;37.330;2024-01-15T12:17:45;18.67;;;8.40;;
72941;SDS011;69665;55.822;37.330;2024-01-15T12:20:11;16.88;;;7.55;;
72941;SDS011;69665;55.822;37.330;2024-01-15T12:22:37;17.73;;;7.88;;
72941;SDS011;69665;55.822;37.330;2024-01-15T12:25:03;18.55;;;8.80;;
72941;SDS011;69665;55.822;37.330;2024-01-15T12:27:30;20.48;;;8.55;;
72941;SDS011;69665;55.822;37.330;2024-01-15T12:29:55;18.95;;;7.78;;
72941;SDS011;69665;55.822;37.330;2024-01-15T12:32:21;19.58;;;8.02;;
72941;SDS011;69665;55.822;37.330;2024-01-15T12:34:49;17.63;;;7.65;;
72941;SDS011;69665;55.822;37.330;2024-01-15T12:37:17;20.90;;;8.13;;
72941;SDS011;69665;55.822;37.330;2024-01-15T12:39:44;14.93;;;7.35;;
72941;SDS011;69665;55.822;37.330;2024-01-15T12:42:09;18.92;;;8.15;;
72941;SDS011;69665;55.822;37.330;2024-01-15T12:44:35;21.60;;;8.18;;
72941;SDS011;69665;55.822;37.330;2024-01-15T12:47:06;16.23;;;6.78;;
72941;SDS011;69665;55.822;37.330;2024-01-15T12:49:32;19.50;;;8.50;;
72941;SDS011;69665;55.822;37.330;2024-01-15T12:51:58;18.85;;;7.38;;
72941;SDS011;69665;55.822;37.330;2024-01-15T12:54:25;20.58;;;7.68;;
72941;SDS011;69665;55.822;37.330;2024-01-15T12:56:52;17.17;;;8.85;;
72941;SDS011;69665;55.822;37.330;2024-01-15T12:59:18;20.48;;;8.18;;
72941;SDS011;69665;55.822;37.330;2024-01-15T13:01:47;18.15;;;8.90;;
72941;SDS011;69665;55.822;37.330;2024-01-15T13:04:22;19.50;;;8.50;;
72941;SDS011;69665;55.822;37.330;2024-01-15T13:06:49;16.92;;;8.02;;
72941;SDS011;69665;55.822;37.330;2024-01-15T13:09:15;19.90;;;8.68;;
72941;SDS011;69665;55.822;37.330;2024-01-15T13:11:41;18.70;;;8.88;;
72941;SDS011;69665;55.822;37.330;2024-01-15T13:14:06;20.70;;;9.13;;
72941;SDS011;69665;55.822;37.330;2024-01-15T13:16:32;17.73;;;8.48;;
72941;SDS011;69665;55.822;37.330;2024-01-15T13:18:58;21.88;;;8.43;;
72941;SDS011;69665;55.822;37.330;2024-01-15T13:21:24;16.45;;;7.85;;
72941;SDS011;69665;55.822;37.330;2024-01-15T13:23:52;19.25;;;9.48;;
72941;SDS011;69665;55.822;37.330;2024-01-15T13:26:18;18.20;;;8.30;;
72941;SDS011;69665;55.822;37.330;2024-01-15T13:28:44;17.20;;;8.60;;
72941;SDS011;69665;55.822;37.330;2024-01-15T13:31:10;20.25;;;8.50;;
72941;SDS011;69665;55.822;37.330;2024-01-15T13:33:36;17.67;;;7.97;;
72941;SDS011;69665;55.822;37.330;2024-01-15T13:36:01;23.60;;;8.88;;
72941;SDS011;69665;55.822;37.330;2024-01-15T13:38:27;21.88;;;8.27;;
72941;SDS011;69665;55.822;37.330;2024-01-15T13:40:58;21.58;;;9.38;;
72941;SDS011;69665;55.822;37.330;2024-01-15T13:43:23;18.15;;;8.18;;
72941;SDS011;69665;55.822;37.330;2024-01-15T13:45:49;21.52;;;9.52;;
72941;SDS011;69665;55.822;37.330;2024-01-15T13:48:15;21.60;;;9.80;;
72941;SDS011;69665;55.822;37.330;2024-01-15T13:50:41;19.70;;;8.93;;
72941;SDS011;69665;55.822;37.330;2024-01-15T13:53:06;18.63;;;8.18;;
72941;SDS011;69665;55.822;37.330;2024-01-15T13:55:34;17.85;;;9.30;;
72941;SDS011;69665;55.822;37.330;2024-01-15T13:58:00;20.42;;;8.65;;
72941;SDS011;69665;55.822;37.330;2024-01-15T14:00:26;24.73;;;8.98;;
72941;SDS011;69665;55.822;37.330;2024-01-15T14:02:52;18.58;;;8.57;;
72941;SDS011;69665;55.822;37.330;2024-01-15T14:05:19;20.58;;;8.63;;
72941;SDS011;69665;55.822;37.330;2024-01-15T14:07:45;18.35;;;8.48;;
72941;SDS011;69665;55.822;37.330;2024-01-15T14:10:11;20.30;;;8.32;;
72941;SDS011;69665;55.822;37.330;2024-01-15T14:12:36;25.35;;;9.70;;
72941;SDS011;69665;55.822;37.330;2024-01-15T14:15:02;20.42;;;10.63;;
72941;SDS011;69665;55.822;37.330;2024-01-15T14:17:30;24.20;;;8.32;;
72941;SDS011;69665;55.822;37.330;2024-01-15T14:19:56;20.48;;;8.43;;
72941;SDS011;69665;55.822;37.330;2024-01-15T14:22:22;22.95;;;10.00;;
72941;SDS011;69665;55.822;37.330;2024-01-15T14:24:47;18.42;;;8.32;;
72941;SDS011;69665;55.822;37.330;2024-01-15T14:27:13;19.60;;;10.00;;
72941;SDS011;69665;55.822;37.330;2024-01-15T14:29:39;19.67;;;8.27;;
72941;SDS011;69665;55.822;37.330;2024-01-15T14:32:05;17.77;;;8.25;;
72941;SDS011;69665;55.822;37.330;2024-01-15T14:34:30;21.42;;;8.65;;
72941;SDS011;69665;55.822;37.330;2024-01-15T14:36:56;19.50;;;8.43;;
72941;SDS011;69665;55.822;37.330;2024-01-15T14:39:22;24.27;;;9.27;;
72941;SDS011;69665;55.822;37.330;2024-01-15T14:41:48;19.00;;;8.70;;
72941;SDS011;69665;55.822;37.330;2024-01-15T14:44:14;19.98;;;9.20;;